createdAt,value
2022-09-01T00:01:18.740Z,6.07
2022-09-01T00:03:52.439Z,6.05
2022-09-01T00:06:24.816Z,6.50
2022-09-01T00:08:57.707Z,7.05
2022-09-01T00:11:29.733Z,6.83
2022-09-01T00:14:01.680Z,6.30
2022-09-01T00:16:32.289Z,6.42
2022-09-01T00:19:02.270Z,6.50
2022-09-01T00:21:37.851Z,6.50
2022-09-01T00:24:08.227Z,6.40
2022-09-01T00:26:38.697Z,6.15
2022-09-01T00:29:27.623Z,6.45
2022-09-01T00:31:57.322Z,6.87
2022-09-01T00:34:26.901Z,6.20
2022-09-01T00:36:56.418Z,7.37
2022-09-01T00:39:26.158Z,6.67
2022-09-01T00:41:56.508Z,6.25
2022-09-01T00:44:31.181Z,6.00
2022-09-01T00:47:01.241Z,6.58
2022-09-01T00:49:39.323Z,6.25
2022-09-01T00:52:26.304Z,6.58
2022-09-01T00:54:58.489Z,7.10
2022-09-01T00:57:29.102Z,7.00
2022-09-01T01:00:01.635Z,6.12
2022-09-01T01:02:31.321Z,6.95
2022-09-01T01:05:03.665Z,7.05
2022-09-01T01:07:36.076Z,6.97
2022-09-01T01:10:07.787Z,6.95
2022-09-01T01:12:38.074Z,7.08
2022-09-01T01:15:11.194Z,6.55
2022-09-01T01:17:44.619Z,6.70
2022-09-01T01:20:34.249Z,6.58
2022-09-01T01:23:20.598Z,6.97
2022-09-01T01:25:58.203Z,7.20
2022-09-01T01:28:38.588Z,6.78
2022-09-01T01:31:20.433Z,7.15
2022-09-01T01:33:53.142Z,7.83
2022-09-01T01:36:32.840Z,7.55
2022-09-01T01:39:16.050Z,7.10
2022-09-01T01:41:49.799Z,7.28
2022-09-01T01:44:24.159Z,6.83
2022-09-01T01:46:57.347Z,7.35
2022-09-01T01:49:30.832Z,7.33
2022-09-01T01:57:08.317Z,8.00
2022-09-01T01:59:39.522Z,7.12
2022-09-01T02:02:09.986Z,8.70
2022-09-01T02:04:41.869Z,7.28
2022-09-01T02:07:14.833Z,7.53
2022-09-01T02:12:18.061Z,7.47
2022-09-01T02:14:48.594Z,7.17
2022-09-01T02:17:18.652Z,7.70
2022-09-01T02:19:49.674Z,7.33
2022-09-01T02:22:20.753Z,7.83
2022-09-01T02:26:05.263Z,7.85
2022-09-01T02:28:18.341Z,7.50
2022-09-01T02:30:52.235Z,7.45
2022-09-01T02:33:25.569Z,7.30
2022-09-01T02:36:01.658Z,7.37
2022-09-01T02:38:34.104Z,7.62
2022-09-01T02:43:34.283Z,8.40
2022-09-01T02:46:06.127Z,7.50
2022-09-01T02:48:41.714Z,7.92
2022-09-01T02:51:14.303Z,7.42
2022-09-01T02:56:14.552Z,7.67
2022-09-01T02:58:47.881Z,7.60
2022-09-01T03:01:32.427Z,7.42
2022-09-01T03:04:11.375Z,7.50
2022-09-01T03:06:41.623Z,7.47
2022-09-01T03:09:14.865Z,6.67
2022-09-01T03:11:47.658Z,7.45
2022-09-01T03:14:17.415Z,6.97
2022-09-01T03:16:47.057Z,6.90
2022-09-01T03:19:18.941Z,7.12
2022-09-01T03:21:50.350Z,6.67
2022-09-01T03:24:22.790Z,6.83
2022-09-01T03:26:54.471Z,6.90
2022-09-01T03:29:24.715Z,7.67
2022-09-01T03:31:54.703Z,7.58
2022-09-01T03:34:24.470Z,7.20
2022-09-01T03:36:56.670Z,7.05
2022-09-01T03:39:30.058Z,7.12
2022-09-01T03:42:01.122Z,7.90
2022-09-01T03:44:32.371Z,7.42
2022-09-01T03:47:03.858Z,6.87
2022-09-01T03:49:35.280Z,7.10
2022-09-01T03:52:06.755Z,7.03
2022-09-01T03:54:36.439Z,7.42
2022-09-01T03:57:07.858Z,8.10
2022-09-01T03:59:40.808Z,7.50
2022-09-01T04:02:12.100Z,7.50
2022-09-01T04:04:42.161Z,7.43
2022-09-01T04:07:15.530Z,7.45
2022-09-01T04:09:44.312Z,7.58
2022-09-01T04:12:15.379Z,7.17
2022-09-01T04:14:48.199Z,8.00
2022-09-01T04:17:35.480Z,7.87
2022-09-01T04:20:09.372Z,7.25
2022-09-01T04:22:38.885Z,7.70
2022-09-01T04:25:09.098Z,7.75
2022-09-01T04:27:40.816Z,7.38
2022-09-01T04:30:14.361Z,7.15
2022-09-01T04:32:46.903Z,7.33
2022-09-01T04:35:18.324Z,7.08
2022-09-01T04:37:50.036Z,7.90
2022-09-01T04:40:21.276Z,7.90
2022-09-01T04:42:52.370Z,7.43
2022-09-01T04:45:23.691Z,7.35
2022-09-01T04:47:56.661Z,6.83
2022-09-01T04:50:28.135Z,7.67
2022-09-01T04:53:16.052Z,6.70
2022-09-01T04:55:50.182Z,7.35
2022-09-01T04:58:22.598Z,7.42
2022-09-01T05:00:52.805Z,7.90
2022-09-01T05:03:24.505Z,7.60
2022-09-01T05:05:58.340Z,8.35
2022-09-01T05:08:31.886Z,7.10
2022-09-01T05:11:02.991Z,8.18
2022-09-01T05:13:36.151Z,7.58
2022-09-01T05:16:10.637Z,7.95
2022-09-01T05:18:44.737Z,8.68
2022-09-01T05:21:18.857Z,8.38
2022-09-01T05:23:51.925Z,8.40
2022-09-01T05:26:26.272Z,8.85
2022-09-01T05:28:58.949Z,8.63
2022-09-01T05:31:33.433Z,7.70
2022-09-01T05:34:04.789Z,7.70
2022-09-01T05:36:34.406Z,8.80
2022-09-01T05:39:07.632Z,7.65
2022-09-01T05:41:40.109Z,7.97
2022-09-01T05:44:11.321Z,8.33
2022-09-01T05:46:43.897Z,8.93
2022-09-01T05:49:16.425Z,8.33
2022-09-01T05:51:53.109Z,8.43
2022-09-01T05:54:26.402Z,8.18
2022-09-01T05:57:17.534Z,8.38
2022-09-01T05:59:34.233Z,8.73
2022-09-01T06:02:09.681Z,8.78
2022-09-01T06:04:42.546Z,8.70
2022-09-01T06:07:16.336Z,8.43
2022-09-01T06:09:50.442Z,8.45
2022-09-01T06:12:24.037Z,8.08
2022-09-01T06:14:56.563Z,8.10
2022-09-01T06:17:30.379Z,8.18
2022-09-01T06:20:02.484Z,8.00
2022-09-01T06:22:32.607Z,8.33
2022-09-01T06:25:03.909Z,8.17
2022-09-01T06:30:09.882Z,7.80
2022-09-01T06:32:41.563Z,8.40
2022-09-01T06:35:12.864Z,8.18
2022-09-01T06:37:44.809Z,8.40
2022-09-01T06:40:17.864Z,8.08
2022-09-01T06:42:51.190Z,7.97
2022-09-01T06:45:23.576Z,7.20
2022-09-01T06:47:59.655Z,7.15
2022-09-01T06:55:31.857Z,7.67
2022-09-01T06:58:05.851Z,7.42
2022-09-01T07:03:08.678Z,7.10
2022-09-01T07:08:18.112Z,7.15
2022-09-01T07:14:15.179Z,6.97
2022-09-01T07:18:58.951Z,7.12
2022-09-01T07:21:42.431Z,7.08
2022-09-01T07:24:10.636Z,7.00
2022-09-01T07:26:46.788Z,6.40
2022-09-01T07:29:09.518Z,6.87
2022-09-01T07:31:52.182Z,6.90
2022-09-01T07:42:31.320Z,7.30
2022-09-01T07:44:29.608Z,6.15
2022-09-01T07:47:20.197Z,6.65
2022-09-01T07:50:12.593Z,6.03
2022-09-01T07:52:22.761Z,6.73
2022-09-01T07:54:54.229Z,5.65
2022-09-01T07:57:24.169Z,5.80
2022-09-01T07:59:55.922Z,5.92
2022-09-01T08:02:28.789Z,5.92
2022-09-01T08:04:59.050Z,6.43
2022-09-01T08:07:29.030Z,6.47
2022-09-01T08:10:01.366Z,5.80
2022-09-01T08:12:30.997Z,6.22
2022-09-01T08:17:50.295Z,5.62
2022-09-01T08:20:12.955Z,5.60
2022-09-01T08:22:48.712Z,6.27
2022-09-01T08:25:24.687Z,5.75
2022-09-01T08:27:59.710Z,5.78
2022-09-01T08:30:23.874Z,5.35
2022-09-01T08:32:53.573Z,5.70
2022-09-01T08:35:23.191Z,5.62
2022-09-01T08:37:54.282Z,5.92
2022-09-01T08:40:24.707Z,5.05
2022-09-01T08:43:09.940Z,5.17
2022-09-01T08:45:49.026Z,5.55
2022-09-01T08:49:23.207Z,4.92
2022-09-01T08:51:36.835Z,5.27
2022-09-01T08:54:29.285Z,5.42
2022-09-01T08:57:06.695Z,5.47
2022-09-01T09:03:09.068Z,5.12
2022-09-01T09:06:14.670Z,5.33
2022-09-01T09:09:03.811Z,6.15
2022-09-01T09:11:48.578Z,5.47
2022-09-01T09:14:36.399Z,5.42
2022-09-01T09:17:06.677Z,4.60
2022-09-01T09:19:44.816Z,5.12
2022-09-01T09:22:17.455Z,5.05
2022-09-01T09:25:11.348Z,6.00
2022-09-01T09:27:43.858Z,5.40
2022-09-01T09:30:23.819Z,5.33
2022-09-01T09:35:43.135Z,5.35
2022-09-01T09:38:26.169Z,5.00
2022-09-01T09:41:16.575Z,5.22
2022-09-01T09:46:30.302Z,4.73
2022-09-01T09:49:34.718Z,5.42
2022-09-01T09:51:58.848Z,6.35
2022-09-01T09:54:31.922Z,5.25
2022-09-01T09:57:14.856Z,5.25
2022-09-01T10:02:41.897Z,4.95
2022-09-01T10:05:32.177Z,5.45
2022-09-01T10:08:03.640Z,4.67
2022-09-01T10:10:57.264Z,4.87
2022-09-01T10:13:22.206Z,4.78
2022-09-01T10:15:54.749Z,4.37
2022-09-01T10:18:30.288Z,5.33
2022-09-01T10:21:04.568Z,4.50
2022-09-01T10:23:38.800Z,4.15
2022-09-01T10:26:20.973Z,3.98
2022-09-01T10:29:15.623Z,4.20
2022-09-01T10:34:19.475Z,4.67
2022-09-01T10:36:56.054Z,4.55
2022-09-01T10:39:22.546Z,4.20
2022-09-01T10:41:59.720Z,4.53
2022-09-01T10:44:38.907Z,4.50
2022-09-01T10:47:16.316Z,4.22
2022-09-01T10:49:52.370Z,4.55
2022-09-01T10:52:51.209Z,4.12
2022-09-01T10:55:25.529Z,4.70
2022-09-01T10:59:31.273Z,4.40
2022-09-01T11:03:30.458Z,4.15
2022-09-01T11:06:18.452Z,4.45
2022-09-01T11:08:37.449Z,4.50
2022-09-01T11:11:19.437Z,4.40
2022-09-01T11:13:51.781Z,4.53
2022-09-01T11:16:46.633Z,4.35
2022-09-01T11:19:37.680Z,4.33
2022-09-01T11:22:15.877Z,4.73
2022-09-01T11:25:00.118Z,4.62
2022-09-01T11:27:52.510Z,4.95
2022-09-01T11:30:33.620Z,4.85
2022-09-01T11:33:30.503Z,4.62
2022-09-01T11:36:06.229Z,4.60
2022-09-01T11:38:44.948Z,4.58
2022-09-01T11:41:27.211Z,4.60
2022-09-01T11:43:58.421Z,4.30
2022-09-01T11:46:32.570Z,4.63
2022-09-01T11:49:05.236Z,4.70
2022-09-01T11:54:12.449Z,5.12
2022-09-01T11:56:43.510Z,4.67
2022-09-01T11:59:13.057Z,4.65
2022-09-01T12:01:42.622Z,4.65
2022-09-01T12:04:24.105Z,4.35
2022-09-01T12:06:56.659Z,4.50
2022-09-01T12:11:56.326Z,4.12
2022-09-01T12:14:25.887Z,4.78
2022-09-01T12:17:04.346Z,4.25
2022-09-01T12:19:38.588Z,4.00
2022-09-01T12:22:16.678Z,4.43
2022-09-01T12:24:49.846Z,4.70
2022-09-01T12:27:19.757Z,4.42
2022-09-01T12:29:49.872Z,4.62
2022-09-01T12:32:20.793Z,5.10
2022-09-01T12:35:09.250Z,4.50
2022-09-01T12:37:33.511Z,5.20
2022-09-01T12:40:05.911Z,4.08
2022-09-01T12:42:41.021Z,3.95
2022-09-01T12:45:10.799Z,4.93
2022-09-01T12:47:50.379Z,4.03
2022-09-01T12:50:29.799Z,5.53
2022-09-01T12:53:03.714Z,4.80
2022-09-01T12:55:51.015Z,4.87
2022-09-01T12:58:09.706Z,4.87
2022-09-01T13:01:00.953Z,4.42
2022-09-01T13:03:31.482Z,5.20
2022-09-01T13:06:05.350Z,4.72
2022-09-01T13:08:37.780Z,4.30
2022-09-01T13:11:11.334Z,4.65
2022-09-01T13:13:42.531Z,4.72
2022-09-01T13:16:15.546Z,4.58
2022-09-01T13:21:16.745Z,5.00
2022-09-01T13:23:46.850Z,4.23
2022-09-01T13:26:16.310Z,5.97
2022-09-01T13:28:47.518Z,4.70
2022-09-01T13:31:31.742Z,4.10
2022-09-01T13:34:10.922Z,4.15
2022-09-01T13:38:57.428Z,4.40
2022-09-01T13:41:26.875Z,4.17
2022-09-01T13:43:56.475Z,4.53
2022-09-01T13:46:26.031Z,4.08
2022-09-01T13:49:05.001Z,3.72
2022-09-01T13:51:29.660Z,4.17
2022-09-01T13:56:28.318Z,3.98
2022-09-01T13:58:57.862Z,3.92
2022-09-01T14:01:28.429Z,3.52
2022-09-01T14:04:00.514Z,3.42
2022-09-01T14:06:30.493Z,4.95
2022-09-01T14:09:01.181Z,4.30
2022-09-01T14:11:32.136Z,3.87
2022-09-01T14:14:01.566Z,3.90
2022-09-01T14:16:31.372Z,3.80
2022-09-01T14:19:02.035Z,3.50
2022-09-01T14:21:31.477Z,4.53
2022-09-01T14:24:01.409Z,3.40
2022-09-01T14:26:31.267Z,3.87
2022-09-01T14:29:02.591Z,3.90
2022-09-01T14:31:32.118Z,3.67
2022-09-01T14:34:01.636Z,3.50
2022-09-01T14:36:33.042Z,3.83
2022-09-01T14:39:02.555Z,3.30
2022-09-01T14:41:32.444Z,3.58
2022-09-01T14:44:03.447Z,3.30
2022-09-01T14:46:34.951Z,3.43
2022-09-01T14:49:08.013Z,3.67
2022-09-01T14:56:38.218Z,3.80
2022-09-01T14:59:09.088Z,3.45
2022-09-01T15:01:38.893Z,3.30
2022-09-01T15:04:08.398Z,3.52
2022-09-01T15:06:37.868Z,3.72
2022-09-01T15:09:08.841Z,3.40
2022-09-01T15:11:44.004Z,3.27
2022-09-01T15:14:11.501Z,3.87
2022-09-01T15:16:42.196Z,3.17
2022-09-01T15:19:13.964Z,3.12
2022-09-01T15:21:45.974Z,3.70
2022-09-01T15:24:28.646Z,3.17
2022-09-01T15:26:58.197Z,3.50
2022-09-01T15:29:27.630Z,3.17
2022-09-01T15:31:58.610Z,3.55
2022-09-01T15:34:29.060Z,3.47
2022-09-01T15:36:58.523Z,3.72
2022-09-01T15:39:37.722Z,3.20
2022-09-01T15:41:59.274Z,3.42
2022-09-01T15:44:29.591Z,2.98
2022-09-01T15:47:00.305Z,3.37
2022-09-01T15:49:30.061Z,3.50
2022-09-01T15:52:01.348Z,3.75
2022-09-01T15:54:31.009Z,3.22
2022-09-01T15:57:00.408Z,3.60
2022-09-01T15:59:30.556Z,3.33
2022-09-01T16:02:00.889Z,3.62
2022-09-01T16:04:30.506Z,3.60
2022-09-01T16:07:00.179Z,3.42
2022-09-01T16:09:29.765Z,3.80
2022-09-01T16:11:59.313Z,3.30
2022-09-01T16:14:30.862Z,3.08
2022-09-01T16:17:24.149Z,3.52
2022-09-01T16:19:59.390Z,3.98
2022-09-01T16:22:34.711Z,3.27
2022-09-01T16:25:17.231Z,3.42
2022-09-01T16:27:48.243Z,3.22
2022-09-01T16:30:24.565Z,3.20
2022-09-01T16:32:56.058Z,2.95
2022-09-01T16:35:29.718Z,3.60
2022-09-01T16:38:11.462Z,3.20
2022-09-01T16:40:44.001Z,2.87
2022-09-01T16:46:12.384Z,3.65
2022-09-01T16:48:47.676Z,3.20
2022-09-01T16:51:42.508Z,2.90
2022-09-01T16:54:19.317Z,2.90
2022-09-01T16:57:03.977Z,3.42
2022-09-01T16:59:39.413Z,3.10
2022-09-01T17:02:30.154Z,4.03
2022-09-01T17:05:14.810Z,3.30
2022-09-01T17:07:54.386Z,3.52
2022-09-01T17:10:43.373Z,3.40
2022-09-01T17:13:35.820Z,3.40
2022-09-01T17:16:14.836Z,3.30
2022-09-01T17:18:58.517Z,3.12
2022-09-01T17:21:41.743Z,3.25
2022-09-01T17:24:40.232Z,3.42
2022-09-01T17:27:27.757Z,3.22
2022-09-01T17:29:58.291Z,3.12
2022-09-01T17:32:48.343Z,2.87
2022-09-01T17:35:39.486Z,2.75
2022-09-01T17:38:33.301Z,3.27
2022-09-01T17:41:31.650Z,2.95
2022-09-01T17:44:11.169Z,3.17
2022-09-01T17:46:54.089Z,3.00
2022-09-01T17:51:57.712Z,2.90
2022-09-01T17:54:48.348Z,2.87
2022-09-01T17:57:33.018Z,3.40
2022-09-01T18:00:24.330Z,3.27
2022-09-01T18:03:02.591Z,2.85
2022-09-01T18:05:41.351Z,3.50
2022-09-01T18:08:30.392Z,2.87
2022-09-01T18:11:03.178Z,3.25
2022-09-01T18:16:19.857Z,3.05
2022-09-01T18:18:51.563Z,3.55
2022-09-01T18:21:24.479Z,3.00
2022-09-01T18:23:56.990Z,3.65
2022-09-01T18:26:33.807Z,3.12
2022-09-01T18:29:06.102Z,3.10
2022-09-01T18:31:54.575Z,3.10
2022-09-01T18:34:27.161Z,3.40
2022-09-01T18:37:16.380Z,3.35
2022-09-01T18:40:08.447Z,3.20
2022-09-01T18:42:46.795Z,3.58
2022-09-01T18:45:31.160Z,3.25
2022-09-01T18:48:21.769Z,3.37
2022-09-01T18:50:56.943Z,3.37
2022-09-01T18:53:47.208Z,3.95
2022-09-01T18:56:40.694Z,3.37
2022-09-01T18:59:25.316Z,3.62
2022-09-01T19:02:16.498Z,3.98
2022-09-01T19:04:48.667Z,3.50
2022-09-01T19:07:28.426Z,3.45
2022-09-01T19:10:03.968Z,3.40
2022-09-01T19:12:48.645Z,3.93
2022-09-01T19:15:46.885Z,3.20
2022-09-01T19:18:46.531Z,3.98
2022-09-01T19:21:25.051Z,3.40
2022-09-01T19:24:00.235Z,3.52
2022-09-01T19:26:33.255Z,3.50
2022-09-01T19:29:09.379Z,3.70
2022-09-01T19:31:42.681Z,3.83
2022-09-01T19:34:18.002Z,3.60
2022-09-01T19:36:59.931Z,3.40
2022-09-01T19:39:35.148Z,3.65
2022-09-01T19:42:26.076Z,3.20
2022-09-01T19:45:10.157Z,3.22
2022-09-01T19:47:59.221Z,3.33
2022-09-01T19:50:45.071Z,3.42
2022-09-01T19:53:41.766Z,3.30
2022-09-01T19:56:19.016Z,3.58
2022-09-01T19:58:57.104Z,4.07
2022-09-01T20:01:59.339Z,3.77
2022-09-01T20:04:44.616Z,3.65
2022-09-01T20:07:20.110Z,3.65
2022-09-01T20:09:58.867Z,4.03
2022-09-01T20:12:41.019Z,3.80
2022-09-01T20:15:13.577Z,3.50
2022-09-01T20:17:56.530Z,3.47
2022-09-01T20:20:29.152Z,3.55
2022-09-01T20:25:41.311Z,3.77
2022-09-01T20:28:19.721Z,3.70
2022-09-01T20:30:54.418Z,4.40
2022-09-01T20:33:38.219Z,4.03
2022-09-01T20:36:13.450Z,3.72
2022-09-01T20:39:09.593Z,3.90
2022-09-01T20:41:44.828Z,5.60
2022-09-01T20:44:19.882Z,4.78
2022-09-01T20:46:53.388Z,4.47
2022-09-01T20:49:23.729Z,4.93
2022-09-01T20:51:58.934Z,5.50
2022-09-01T20:54:46.382Z,4.85
2022-09-01T20:57:35.446Z,4.45
2022-09-01T21:00:23.014Z,5.35
2022-09-01T21:03:13.419Z,5.08
2022-09-01T21:05:54.718Z,5.35
2022-09-01T21:08:37.080Z,5.55
2022-09-01T21:11:21.491Z,4.80
2022-09-01T21:14:02.900Z,5.00
2022-09-01T21:16:44.483Z,5.40
2022-09-01T21:19:32.153Z,5.08
2022-09-01T21:22:07.256Z,5.17
2022-09-01T21:24:38.084Z,5.20
2022-09-01T21:27:19.462Z,5.67
2022-09-01T21:30:01.560Z,5.17
2022-09-01T21:32:33.851Z,5.43
2022-09-01T21:35:05.353Z,6.15
2022-09-01T21:37:36.321Z,6.42
2022-09-01T21:40:07.837Z,6.70
2022-09-01T21:42:43.296Z,7.23
2022-09-01T21:45:16.357Z,7.42
2022-09-01T21:47:48.262Z,6.65
2022-09-01T21:50:20.454Z,8.37
2022-09-01T21:52:50.064Z,7.08
2022-09-01T21:55:22.994Z,8.03
2022-09-01T21:57:52.889Z,8.68
2022-09-01T22:00:25.151Z,8.40
2022-09-01T22:02:57.735Z,8.95
2022-09-01T22:05:27.414Z,8.75
2022-09-01T22:07:59.405Z,8.45
2022-09-01T22:10:31.727Z,8.07
2022-09-01T22:13:03.763Z,8.45
2022-09-01T22:15:33.357Z,8.53
2022-09-01T22:18:02.914Z,7.97
2022-09-01T22:20:32.435Z,7.40
2022-09-01T22:23:05.035Z,7.75
2022-09-01T22:25:37.093Z,7.12
2022-09-01T22:28:08.007Z,7.23
2022-09-01T22:30:37.780Z,7.08
2022-09-01T22:33:09.954Z,6.70
2022-09-01T22:35:48.366Z,6.23
2022-09-01T22:38:21.034Z,6.50
2022-09-01T22:40:55.239Z,6.63
2022-09-01T22:43:27.186Z,6.45
2022-09-01T22:45:59.593Z,6.77
2022-09-01T22:48:29.809Z,6.75
2022-09-01T22:51:07.017Z,6.83
2022-09-01T22:53:36.129Z,6.35
2022-09-01T22:56:20.471Z,6.63
2022-09-01T22:58:53.787Z,5.93
2022-09-01T23:01:26.260Z,6.03
2022-09-01T23:03:57.369Z,6.37
2022-09-01T23:06:29.619Z,5.95
2022-09-01T23:09:01.311Z,5.78
2022-09-01T23:11:30.906Z,5.57
2022-09-01T23:14:02.135Z,5.95
2022-09-01T23:16:34.820Z,5.55
2022-09-01T23:21:36.294Z,5.92
2022-09-01T23:24:08.343Z,6.03
2022-09-01T23:26:38.902Z,5.80
2022-09-01T23:29:09.763Z,5.97
2022-09-01T23:31:40.672Z,5.80
2022-09-01T23:34:10.412Z,5.65
2022-09-01T23:36:41.459Z,5.67
2022-09-01T23:39:10.916Z,6.12
2022-09-01T23:41:40.611Z,6.85
2022-09-01T23:44:12.182Z,6.12
2022-09-01T23:46:45.022Z,6.08
2022-09-01T23:49:17.078Z,6.17
2022-09-01T23:51:48.444Z,5.67
2022-09-01T23:54:18.249Z,7.60
2022-09-01T23:56:48.278Z,6.55
2022-09-01T23:59:22.880Z,6.25
